ADDS METAR Data INFO
IDs: Format: Raw Decoded Include TAF

Data at: 1518 UTC 23 Oct 2017

KCAV 231515Z AUTO 33012G17KT 10SM BKN100 13/06 A2986 RMK AO2 PWINO
KCAV 231455Z AUTO 32016G22KT 10SM BKN100 12/06 A2986 RMK AO2 PWINO
KCAV 231435Z AUTO 31015G20KT 10SM BKN100 12/06 A2986 RMK AO2 PWINO
KCAV 231415Z AUTO 31010KT 10SM BKN100 10/05 A2986 RMK AO2 PWINO
KCAV 231355Z AUTO 30008KT 10SM BKN110 10/05 A2984 RMK AO2 PWINO
KCAV 231335Z AUTO 26007KT 10SM CLR 08/04 A2984 RMK AO2 PWINO
KCAV 231315Z AUTO 23007KT 10SM CLR 07/04 A2984 RMK AO2 PWINO
KCAV 231255Z AUTO 22006KT 10SM CLR 06/04 A2984 RMK AO2 PWINO
KCAV 231235Z AUTO 22004KT 10SM CLR 06/05 A2985 RMK AO2 PWINO
KCAV 231215Z AUTO 21006KT 10SM CLR 06/05 A2983 RMK AO2 PWINO
KCAV 231155Z AUTO 21007KT 10SM CLR 07/05 A2983 RMK AO2 PWINO
KCAV 231135Z AUTO 20009KT 10SM CLR 08/05 A2983 RMK AO2 PWINO
KCAV 231115Z AUTO 18010KT 10SM CLR 08/05 A2983 RMK AO2 PWINO
KCAV 231055Z AUTO 18009KT 10SM FEW036 FEW110 08/05 A2984 RMK AO2 PWINO
KCAV 231035Z AUTO 17010KT 10SM FEW036 08/05 A2984 RMK AO2 PWINO
KCAV 231015Z AUTO 17011KT 10SM CLR 08/05 A2985 RMK AO2 PWINO
KCAV 230955Z AUTO 18010KT 10SM CLR 08/04 A2986 RMK AO2 PWINO
KCAV 230935Z AUTO 18011KT 10SM CLR 08/04 A2986 RMK AO2 PWINO
KCAV 230915Z AUTO 18011KT 10SM CLR 09/04 A2987 RMK AO2 PWINO
KCAV 230855Z AUTO 17012KT 10SM CLR 09/04 A2986 RMK AO2 PWINO
KCAV 230835Z AUTO 18013KT 10SM CLR 08/04 A2988 RMK AO2 PWINO
KCAV 230815Z AUTO 18011KT 10SM CLR 08/04 A2989 RMK AO2 PWINO
KCAV 230755Z AUTO 18010KT 10SM CLR 08/04 A2990 RMK AO2 PWINO
KCAV 230735Z AUTO 18011KT CLR 08/04 A2991 RMK AO2 PWINO
KCAV 230715Z AUTO 18011KT 10SM CLR 08/04 A2991 RMK AO2 PWINO
KCAV 230655Z AUTO 18011KT 10SM CLR 08/04 A2991 RMK AO2 PWINO
KCAV 230635Z AUTO 18011KT 10SM CLR 08/04 A2992 RMK AO2 PWINO
KCAV 230615Z AUTO 18011KT 10SM CLR 08/05 A2993 RMK AO2 PWINO
KCAV 230555Z AUTO 18010KT 10SM CLR 08/04 A2993 RMK AO2 PWINO
KCAV 230535Z AUTO 18010KT 10SM CLR 09/04 A2994 RMK AO2 PWINO
KCAV 230515Z AUTO 18011KT 10SM CLR 09/04 A2995 RMK AO2 PWINO
KCAV 230455Z AUTO 17011KT 10SM CLR 09/04 A2995 RMK AO2 PWINO
KCAV 230435Z AUTO 17011KT 10SM CLR 09/03 A2996 RMK AO2 PWINO
KCAV 230415Z AUTO 17011KT 10SM CLR 08/03 A2996 RMK AO2 PWINO
KCAV 230355Z AUTO 16009KT 10SM CLR 08/02 A2997 RMK AO2 PWINO
KCAV 230335Z AUTO 17009KT 10SM CLR 08/02 A2998 RMK AO2 PWINO
KCAV 230315Z AUTO 17008KT 10SM CLR 08/02 A2998 RMK AO2 PWINO
KCAV 230255Z AUTO 16009KT 10SM CLR 08/02 A2999 RMK AO2 PWINO
KCAV 230235Z AUTO 17008KT 10SM CLR 09/02 A2999 RMK AO2 PWINO
KCAV 230215Z AUTO 17009KT 10SM CLR 09/02 A2999 RMK AO2 PWINO
KCAV 230155Z AUTO 17008KT 10SM CLR 09/02 A2999 RMK AO2 PWINO
KCAV 230135Z AUTO 17008KT 10SM CLR 09/02 A2999 RMK AO2 PWINO
KCAV 230115Z AUTO 16009KT 10SM CLR 09/03 A3000 RMK AO2 PWINO
KCAV 230055Z AUTO 16008KT 5SM HZ CLR 09/03 A3000 RMK AO2 PWINO
KCAV 230035Z AUTO 18006KT 10SM CLR 08/03 A3001 RMK AO2 PWINO
KCAV 230015Z AUTO 17007KT 10SM CLR 09/03 A3001 RMK AO2 PWINO
KCAV 222355Z AUTO 18007KT 10SM CLR 10/03 A3001 RMK AO2 PWINO
KCAV 222335Z AUTO 19005KT 10SM CLR 11/02 A3001 RMK AO2 PWINO
KCAV 222315Z AUTO 20005KT 10SM CLR 15/00 A3001 RMK AO2 PWINO
KCAV 222255Z AUTO 21004KT 10SM CLR 16/01 A3001 RMK AO2 PWINO
KCAV 222235Z AUTO 24005KT 10SM CLR 17/01 A3001 RMK AO2 PWINO
KCAV 222215Z AUTO 26007KT 10SM CLR 18/00 A3001 RMK AO2 PWINO
KCAV 222155Z AUTO 28004G10KT 10SM CLR 18/M01 A3001 RMK AO2 PWINO
KCAV 222135Z AUTO 27010KT 10SM CLR 18/M00 A3001 RMK AO2 PWINO
KCAV 222115Z AUTO 29005KT 10SM CLR 18/M00 A3001 RMK AO2 PWINO
KCAV 222055Z AUTO 31011KT 10SM CLR 18/M01 A3001 RMK AO2 PWINO
KCAV 222035Z AUTO 29008KT 10SM CLR 18/M00 A3002 RMK AO2 PWINO
KCAV 222015Z AUTO 27007KT 10SM CLR 18/M00 A3002 RMK AO2 PWINO
KCAV 221955Z AUTO 30010G15KT 10SM CLR 18/00 A3003 RMK AO2 PWINO
KCAV 221935Z AUTO 29012G19KT 10SM CLR 18/00 A3003 RMK AO2 PWINO
KCAV 221915Z AUTO 30009G16KT 10SM CLR 18/01 A3003 RMK AO2 PWINO
KCAV 221855Z AUTO 30012G17KT 10SM CLR 17/01 A3003 RMK AO2 PWINO
KCAV 221835Z AUTO 29013KT 10SM CLR 17/01 A3003 RMK AO2 PWINO
KCAV 221815Z AUTO 28013KT 10SM CLR 17/01 A3004 RMK AO2 PWINO
KCAV 221755Z AUTO 30012G19KT 10SM CLR 17/01 A3005 RMK AO2 PWINO
KCAV 221735Z AUTO 30008G14KT 10SM CLR 16/04 A3006 RMK AO2 PWINO
KCAV 221715Z AUTO 28011KT 10SM CLR 15/05 A3006 RMK AO2 PWINO
KCAV 221655Z AUTO 30011G16KT 10SM CLR 14/06 A3006 RMK AO2 PWINO
KCAV 221635Z AUTO 29011KT 10SM CLR 14/06 A3006 RMK AO2 PWINO
KCAV 221615Z AUTO 30011G16KT 10SM CLR 13/07 A3006 RMK AO2 PWINO
KCAV 221555Z AUTO 29010KT 10SM CLR 12/07 A3006 RMK AO2 PWINO
KCAV 221535Z AUTO 30009KT 10SM CLR 11/07 A3006 RMK AO2 PWINO
KCAV 221515Z AUTO 29008KT 10SM CLR 10/08 A3006 RMK AO2 PWINO
KCAV 221455Z AUTO 28007KT 10SM CLR 10/08 A3006 RMK AO2 PWINO
KCAV 221435Z AUTO 30006KT 10SM CLR 09/07 A3005 RMK AO2 PWINO
KCAV 221415Z AUTO 29007KT 10SM CLR 09/07 A3005 RMK AO2 PWINO
KCAV 221355Z AUTO 29009KT 10SM CLR 09/07 A3004 RMK AO2 PWINO
KCAV 221335Z AUTO 29008KT 10SM CLR 08/07 A3003 RMK AO2 PWINO
KCAV 221315Z AUTO 30007KT 10SM CLR 08/07 A3002 RMK AO2 PWINO
KCAV 221255Z AUTO 30006KT 10SM CLR 08/08 A3001 RMK AO2 PWINO
KCAV 221235Z AUTO 30006KT 10SM CLR 08/08 A3001 RMK AO2 PWINO
KCAV 221215Z AUTO 30007KT 10SM CLR 08/08 A3000 RMK AO2 PWINO
KCAV 221155Z AUTO 29006KT 10SM CLR 08/08 A3001 RMK AO2 PWINO
KCAV 221135Z AUTO 29003KT 10SM CLR 08/08 A3001 RMK AO2 PWINO
KCAV 221115Z AUTO 30004KT 10SM CLR 09/08 A3000 RMK AO2 PWINO
KCAV 221055Z AUTO 29005KT 10SM CLR 09/08 A2999 RMK AO2 PWINO
KCAV 221035Z AUTO 28004KT 10SM CLR 09/08 A2999 RMK AO2 PWINO
KCAV 221015Z AUTO 30004KT 10SM CLR 09/08 A2998 RMK AO2 PWINO
KCAV 220955Z AUTO 30004KT 10SM CLR 09/08 A2997 RMK AO2 PWINO
KCAV 220935Z AUTO 30004KT 10SM CLR 09/08 A2997 RMK AO2 PWINO
KCAV 220915Z AUTO 30007KT 10SM CLR 09/08 A2996 RMK AO2 PWINO
KCAV 220855Z AUTO 30006KT 10SM FEW110 09/08 A2995 RMK AO2 PWINO
KCAV 220835Z AUTO 30006KT 10SM FEW110 09/08 A2996 RMK AO2 PWINO
KCAV 220815Z AUTO 30005KT 10SM CLR 09/08 A2994 RMK AO2 PWINO
KCAV 220755Z AUTO 31005KT 10SM FEW095 FEW120 09/08 A2994 RMK AO2 PWINO
KCAV 220735Z AUTO 31006KT 10SM CLR 10/08 A2995 RMK AO2 PWINO
KCAV 220715Z AUTO 30006KT 10SM CLR 10/08 A2995 RMK AO2 PWINO
KCAV 220655Z AUTO 30006KT 10SM CLR 10/09 A2994 RMK AO2 PWINO
KCAV 220635Z AUTO 30007KT 10SM CLR 10/09 A2994 RMK AO2 PWINO
KCAV 220615Z AUTO 30007KT 10SM FEW120 10/09 A2992 RMK AO2 PWINO
KCAV 220555Z AUTO 30007KT 10SM CLR 10/09 A2992 RMK AO2 PWINO
KCAV 220535Z AUTO 30009KT 10SM CLR 10/09 A2993 RMK AO2 PWINO
KCAV 220515Z AUTO 31007KT 10SM CLR 10/09 A2993 RMK AO2 PWINO
KCAV 220455Z AUTO 30007KT 10SM CLR 11/09 A2994 RMK AO2 PWINO
KCAV 220435Z AUTO 30009KT 10SM SCT055 11/09 A2994 RMK AO2 PWINO
KCAV 220415Z AUTO 30011KT 10SM BKN055 BKN110 11/09 A2993 RMK AO2 PWINO
KCAV 220355Z AUTO 31012G17KT 10SM SCT050 BKN110 11/10 A2991 RMK AO2 PWINO
KCAV 220335Z AUTO 30010KT 10SM OVC050 12/10 A2991 RMK AO2 PWINO